Time;durP1;ratioP1;P1;durP2;ratioP2;P2;SDS_P1;SDS_P2;PMS_P1;PMS_P2;Temp;Humidity;BMP_temperature;BMP_pressure;BME280_temperature;BME280_humidity;BME280_pressure;Samples;Min_cycle;Max_cycle;Signal;HPM_P1;HPM_P2
2022/01/09 00:00:18;;;;;;;5.50;4.00;;;2.20;1.00;;;;;;5073113;28;20435;-60
2022/01/09 00:02:44;;;;;;;7.57;5.03;;;2.20;1.00;;;;;;5072062;28;20513;-60
2022/01/09 00:05:11;;;;;;;6.90;4.47;;;2.10;1.00;;;;;;5073644;28;20561;-60
2022/01/09 00:07:37;;;;;;;9.40;5.10;;;2.10;1.00;;;;;;5070379;28;20336;-60
2022/01/09 00:10:05;;;;;;;6.60;3.97;;;2.10;1.00;;;;;;5074090;28;20520;-60
2022/01/09 00:12:30;;;;;;;6.30;3.63;;;2.10;1.00;;;;;;5069416;28;20952;-61
2022/01/09 00:14:56;;;;;;;5.97;4.00;;;;;;;;;;5072016;28;20468;-60
2022/01/09 00:17:22;;;;;;;6.13;3.80;;;;;;;;;;5072766;28;20252;-61
2022/01/09 00:19:48;;;;;;;5.73;4.07;;;2.20;1.00;;;;;;5072893;28;20453;-59
2022/01/09 00:22:15;;;;;;;6.10;4.13;;;2.10;1.00;;;;;;5072522;28;20442;-60
2022/01/09 00:24:41;;;;;;;7.93;4.83;;;2.20;1.00;;;;;;5073211;28;20637;-60
2022/01/09 00:27:07;;;;;;;6.70;4.53;;;2.20;1.00;;;;;;5073171;28;20500;-60
2022/01/09 00:29:35;;;;;;;7.17;4.47;;;2.20;1.00;;;;;;5069705;28;20238;-60
2022/01/09 00:32:01;;;;;;;5.07;3.40;;;2.20;1.00;;;;;;5071087;28;20180;-60
2022/01/09 00:34:26;;;;;;;8.40;4.63;;;2.10;1.00;;;;;;5075067;28;20545;-61
2022/01/09 00:36:52;;;;;;;5.53;3.80;;;2.20;1.00;;;;;;5073381;28;20192;-60
2022/01/09 00:39:17;;;;;;;5.40;3.80;;;2.20;1.00;;;;;;5071867;28;20183;-60
2022/01/09 00:41:43;;;;;;;5.70;3.50;;;;;;;;;;5078224;28;20212;-61
2022/01/09 00:44:09;;;;;;;5.97;4.20;;;;;;;;;;5070901;28;20222;-60
2022/01/09 00:46:35;;;;;;;8.80;4.50;;;;;;;;;;5072018;28;20533;-61
2022/01/09 00:49:03;;;;;;;5.73;3.80;;;2.30;1.00;;;;;;5071916;28;20417;-61
2022/01/09 00:51:29;;;;;;;7.27;4.70;;;2.20;1.00;;;;;;5072724;28;20994;-60
2022/01/09 00:53:55;;;;;;;5.23;3.67;;;2.30;1.00;;;;;;5070869;28;20442;-61
2022/01/09 00:56:20;;;;;;;5.47;3.97;;;2.30;1.00;;;;;;5071834;28;20466;-61
2022/01/09 00:58:46;;;;;;;12.97;4.17;;;2.20;1.00;;;;;;5074275;28;20187;-60
2022/01/09 01:01:12;;;;;;;6.10;4.83;;;;;;;;;;5072176;28;20655;-61
2022/01/09 01:03:38;;;;;;;6.87;4.80;;;;;;;;;;5070751;28;20525;-59
2022/01/09 01:06:04;;;;;;;6.87;4.60;;;2.20;1.00;;;;;;5073492;28;20469;-60
2022/01/09 01:08:30;;;;;;;5.57;4.57;;;2.10;1.00;;;;;;5071586;28;20553;-60
2022/01/09 01:10:55;;;;;;;6.40;4.60;;;2.20;1.00;;;;;;5071623;28;20195;-60
2022/01/09 01:13:21;;;;;;;7.73;4.47;;;2.20;1.00;;;;;;5071793;28;20191;-60
2022/01/09 01:15:47;;;;;;;8.67;4.60;;;;;;;;;;5084037;28;20207;-60
2022/01/09 01:18:13;;;;;;;10.50;5.53;;;2.20;1.00;;;;;;5072908;28;20180;-60
2022/01/09 01:20:40;;;;;;;8.93;4.70;;;2.20;1.00;;;;;;5075578;28;20619;-61
2022/01/09 01:23:05;;;;;;;5.87;4.23;;;2.10;1.00;;;;;;5076853;28;20689;-61
2022/01/09 01:25:31;;;;;;;6.33;4.50;;;2.10;1.00;;;;;;5078486;28;20527;-60
2022/01/09 01:27:56;;;;;;;9.83;5.20;;;2.10;1.00;;;;;;5064657;28;20212;-60
2022/01/09 01:30:22;;;;;;;5.60;4.90;;;2.10;1.00;;;;;;5073008;28;20179;-60
2022/01/09 01:32:48;;;;;;;8.37;4.40;;;2.10;1.00;;;;;;5083561;28;20258;-59
2022/01/09 01:35:13;;;;;;;8.53;4.80;;;2.10;1.00;;;;;;5070822;28;20257;-61
2022/01/09 01:37:41;;;;;;;7.70;4.00;;;;;;;;;;5071084;28;20211;-60
2022/01/09 01:40:19;;;;;;;8.70;4.83;;;2.10;1.00;;;;;;5070653;28;20275;-60
2022/01/09 01:42:46;;;;;;;5.00;4.23;;;2.00;1.00;;;;;;5071115;28;20437;-60
2022/01/09 01:45:12;;;;;;;5.20;3.90;;;2.00;1.00;;;;;;5070344;28;20442;-60
2022/01/09 01:47:38;;;;;;;5.60;4.40;;;2.00;1.00;;;;;;5070360;28;20486;-60
2022/01/09 01:50:06;;;;;;;4.87;3.70;;;2.00;1.00;;;;;;5071611;28;20444;-61
2022/01/09 01:52:38;;;;;;;5.50;3.33;;;;;;;;;;5068691;28;20452;-60
2022/01/09 01:55:08;;;;;;;5.83;4.47;;;2.00;1.00;;;;;;5069320;28;20468;-61
2022/01/09 01:57:38;;;;;;;7.60;4.10;;;2.10;1.00;;;;;;5070463;28;20791;-61
2022/01/09 02:00:06;;;;;;;7.23;4.27;;;2.10;1.00;;;;;;5070319;28;20794;-59
2022/01/09 02:02:31;;;;;;;4.40;3.97;;;2.00;1.00;;;;;;5072020;28;20438;-60
2022/01/09 02:04:57;;;;;;;6.07;3.00;;;2.10;1.00;;;;;;5084134;28;20948;-60
2022/01/09 02:07:24;;;;;;;4.70;3.50;;;2.10;1.00;;;;;;5072575;28;20189;-61
2022/01/09 02:09:49;;;;;;;4.20;3.70;;;2.10;1.00;;;;;;5073183;28;20218;-60
2022/01/09 02:12:16;;;;;;;5.27;3.80;;;2.10;1.00;;;;;;5071522;28;20926;-61
2022/01/09 02:14:47;;;;;;;7.83;4.43;;;;;;;;;;5069989;28;20278;-60
2022/01/09 02:17:20;;;;;;;4.50;3.20;;;2.10;1.00;;;;;;5069679;28;20573;-60
2022/01/09 02:19:56;;;;;;;5.80;4.00;;;2.20;1.00;;;;;;5071963;28;20445;-60
2022/01/09 02:22:24;;;;;;;4.80;3.20;;;2.30;1.00;;;;;;5069768;28;20470;-60
2022/01/09 02:24:51;;;;;;;5.00;4.07;;;2.30;1.00;;;;;;5070183;28;20472;-60
2022/01/09 02:27:17;;;;;;;6.00;3.90;;;2.30;1.00;;;;;;5077018;28;20530;-60
2022/01/09 02:29:46;;;;;;;4.43;3.20;;;2.40;1.00;;;;;;5079583;28;20690;-57
2022/01/09 02:32:12;;;;;;;5.53;3.40;;;2.40;1.00;;;;;;5070861;28;20442;-60
2022/01/09 02:34:38;;;;;;;4.10;3.70;;;2.40;1.00;;;;;;5072907;28;20442;-60
2022/01/09 02:37:03;;;;;;;4.60;3.10;;;2.40;1.00;;;;;;5072300;28;20188;-60
2022/01/09 02:39:29;;;;;;;4.80;3.50;;;;;;;;;;5069557;28;20258;-60
2022/01/09 02:41:55;;;;;;;4.90;3.20;;;2.40;1.00;;;;;;5072650;28;20192;-61
2022/01/09 02:44:21;;;;;;;5.23;3.50;;;2.40;1.00;;;;;;5070684;28;20456;-60
2022/01/09 02:49:13;;;;;;;5.53;3.40;;;;;;;;;;5075487;28;20188;-60
2022/01/09 02:51:44;;;;;;;6.63;3.47;;;2.40;1.00;;;;;;5073014;28;20437;-61
2022/01/09 02:56:54;;;;;;;4.60;3.50;;;2.40;1.00;;;;;;5073130;28;20502;-59
2022/01/09 02:59:19;;;;;;;6.70;4.20;;;2.40;1.00;;;;;;5074197;28;20860;-59
2022/01/09 03:01:45;;;;;;;6.73;3.40;;;2.40;1.00;;;;;;5073436;28;20219;-60
2022/01/09 03:04:11;;;;;;;5.00;3.53;;;2.40;1.00;;;;;;5073584;28;20176;-61
2022/01/09 03:06:37;;;;;;;4.20;3.13;;;;;;;;;;5072514;28;20244;-60
2022/01/09 03:09:06;;;;;;;4.53;3.20;;;;;;;;;;5076286;28;20190;-60
2022/01/09 03:11:32;;;;;;;4.20;3.80;;;2.40;1.00;;;;;;5077145;28;20442;-59
2022/01/09 03:13:57;;;;;;;3.60;3.20;;;2.40;1.00;;;;;;5073656;28;20443;-61
2022/01/09 03:16:23;;;;;;;5.93;3.50;;;2.50;1.00;;;;;;5076375;28;20461;-60
2022/01/09 03:18:49;;;;;;;5.20;4.30;;;;;;;;;;5087400;28;20634;-60
2022/01/09 03:21:14;;;;;;;4.27;3.80;;;2.60;1.00;;;;;;5072154;28;20257;-60
2022/01/09 03:23:40;;;;;;;4.73;3.20;;;2.60;1.00;;;;;;5076489;28;20472;-60
2022/01/09 03:26:08;;;;;;;4.60;3.97;;;2.50;1.00;;;;;;5071654;28;20194;-61
2022/01/09 03:28:35;;;;;;;4.97;3.47;;;2.50;1.00;;;;;;5074877;28;20184;-61
2022/01/09 03:31:00;;;;;;;4.80;4.30;;;2.50;1.00;;;;;;5072414;28;20437;-60
2022/01/09 03:33:26;;;;;;;3.93;3.23;;;;;;;;;;5071981;28;21032;-61
2022/01/09 03:35:52;;;;;;;8.53;4.50;;;2.50;1.00;;;;;;5075015;28;20670;-60
2022/01/09 03:38:18;;;;;;;5.50;4.00;;;;;;;;;;5072930;28;20492;-60
2022/01/09 03:40:43;;;;;;;7.07;4.03;;;2.60;1.00;;;;;;5057402;28;20646;-61
2022/01/09 03:43:09;;;;;;;5.40;4.20;;;2.70;1.00;;;;;;5073547;28;21038;-60
2022/01/09 03:45:34;;;;;;;8.03;3.70;;;2.70;1.00;;;;;;5073719;28;20260;-59
2022/01/09 03:48:00;;;;;;;4.90;3.57;;;2.60;1.00;;;;;;5075028;28;20280;-60
2022/01/09 03:50:26;;;;;;;3.90;3.27;;;2.70;1.00;;;;;;5072446;28;20704;-61
2022/01/09 03:52:52;;;;;;;6.70;3.53;;;2.70;1.00;;;;;;5074816;28;20680;-60
2022/01/09 03:55:19;;;;;;;4.50;3.00;;;2.60;1.00;;;;;;5075212;28;20470;-60
2022/01/09 03:57:46;;;;;;;5.83;3.20;;;2.60;1.00;;;;;;5074345;28;20448;-60
2022/01/09 04:00:18;;;;;;;2.83;2.63;;;2.60;1.00;;;;;;5073201;28;20911;-60
2022/01/09 04:02:44;;;;;;;3.97;2.90;;;2.50;1.00;;;;;;5074049;28;20530;-61
2022/01/09 04:05:10;;;;;;;6.13;3.37;;;2.60;1.00;;;;;;5056677;28;20446;-59
2022/01/09 04:07:37;;;;;;;4.40;3.07;;;2.60;1.00;;;;;;5073440;28;20511;-59
2022/01/09 04:10:04;;;;;;;4.27;2.90;;;;;;;;;;5074661;28;20698;-60
2022/01/09 04:12:47;;;;;;;4.50;3.13;;;2.60;1.00;;;;;;5058852;28;20467;-60
2022/01/09 04:15:13;;;;;;;11.33;3.17;;;2.60;1.00;;;;;;5076603;28;20834;-61
2022/01/09 04:17:52;;;;;;;3.73;2.60;;;2.60;1.00;;;;;;5074669;28;20841;-60
2022/01/09 04:20:22;;;;;;;5.80;3.30;;;2.50;1.00;;;;;;5073700;28;20441;-60
2022/01/09 04:22:49;;;;;;;4.30;2.70;;;2.50;1.00;;;;;;5076118;28;20788;-60
2022/01/09 04:25:15;;;;;;;5.77;3.33;;;2.60;1.00;;;;;;5074629;28;20528;-61
2022/01/09 04:27:42;;;;;;;3.70;2.83;;;2.60;1.00;;;;;;5058731;28;20587;-61
2022/01/09 04:30:08;;;;;;;4.93;3.27;;;;;;;;;;5073415;28;20446;-61
2022/01/09 04:32:34;;;;;;;3.70;3.13;;;2.60;1.00;;;;;;5070932;28;20748;-59
2022/01/09 04:35:00;;;;;;;5.63;3.33;;;2.50;1.00;;;;;;5072711;28;20540;-60
2022/01/09 04:37:26;;;;;;;3.90;3.03;;;;;;;;;;5076750;28;20216;-60
2022/01/09 04:39:53;;;;;;;4.30;2.93;;;;;;;;;;5072005;28;20436;-59
2022/01/09 04:42:23;;;;;;;5.90;3.17;;;2.60;1.00;;;;;;5072070;28;20430;-60
2022/01/09 04:44:49;;;;;;;4.00;3.43;;;;;;;;;;5074023;28;20472;-59
2022/01/09 04:47:17;;;;;;;3.23;2.93;;;2.70;1.00;;;;;;5074548;28;20455;-60
2022/01/09 04:49:45;;;;;;;4.80;3.13;;;2.60;1.00;;;;;;5070945;28;20438;-61
2022/01/09 04:52:15;;;;;;;3.60;3.00;;;;;;;;;;5070592;28;20441;-60
2022/01/09 04:54:41;;;;;;;5.00;3.10;;;2.50;1.00;;;;;;5072519;28;20809;-60
2022/01/09 04:57:07;;;;;;;5.53;3.03;;;2.50;1.00;;;;;;5070977;28;20441;-59
2022/01/09 04:59:32;;;;;;;8.13;3.93;;;2.40;1.00;;;;;;5071819;28;20635;-60
2022/01/09 05:01:58;;;;;;;9.00;3.80;;;;;;;;;;5071151;28;20438;-60
2022/01/09 05:04:24;;;;;;;8.63;4.30;;;;;;;;;;5072971;28;20183;-60
2022/01/09 05:06:50;;;;;;;5.37;3.00;;;2.40;1.00;;;;;;5072021;28;20437;-60
2022/01/09 05:09:15;;;;;;;8.17;3.90;;;2.50;1.00;;;;;;5069191;28;20442;-60
2022/01/09 05:11:41;;;;;;;4.30;3.17;;;2.50;1.00;;;;;;5072360;28;20253;-61
2022/01/09 05:14:07;;;;;;;5.20;3.60;;;2.40;1.00;;;;;;5068945;28;20202;-60
2022/01/09 05:16:32;;;;;;;5.27;3.30;;;2.50;1.00;;;;;;5073582;28;20208;-60
2022/01/09 05:19:04;;;;;;;5.13;4.00;;;2.40;1.00;;;;;;5070082;28;20188;-61
2022/01/09 05:21:29;;;;;;;3.70;3.37;;;2.50;1.00;;;;;;5074033;28;20190;-60
2022/01/09 05:23:55;;;;;;;3.27;2.73;;;2.50;1.00;;;;;;5071287;28;20477;-60
2022/01/09 05:26:20;;;;;;;8.37;3.33;;;2.60;1.00;;;;;;5072200;28;20309;-60
2022/01/09 05:28:46;;;;;;;7.70;3.83;;;;;;;;;;5069120;28;20270;-60
2022/01/09 05:31:12;;;;;;;7.43;3.83;;;;;;;;;;5069055;28;20629;-60
2022/01/09 05:33:38;;;;;;;6.20;3.57;;;;;;;;;;5068814;28;20439;-61
2022/01/09 05:36:04;;;;;;;5.00;3.37;;;2.70;1.00;;;;;;5072438;28;20460;-60
2022/01/09 05:38:31;;;;;;;8.00;3.30;;;2.60;1.00;;;;;;5068809;28;20946;-59
2022/01/09 05:40:56;;;;;;;7.67;3.27;;;2.70;1.00;;;;;;5071263;28;20529;-61
2022/01/09 05:43:24;;;;;;;6.00;3.50;;;2.70;1.00;;;;;;5069899;28;20576;-60
2022/01/09 05:45:50;;;;;;;7.13;3.53;;;;;;;;;;5071422;28;20182;-59
2022/01/09 05:48:16;;;;;;;7.13;3.33;;;2.70;1.00;;;;;;5067889;28;20449;-60
2022/01/09 05:50:43;;;;;;;5.77;4.13;;;2.70;1.00;;;;;;5069602;28;20523;-60
2022/01/09 05:53:09;;;;;;;3.93;3.53;;;2.70;1.00;;;;;;5067136;28;20456;-59
2022/01/09 05:55:34;;;;;;;7.07;4.47;;;;;;;;;;5069043;28;20462;-60
2022/01/09 05:58:00;;;;;;;7.27;4.07;;;2.70;1.00;;;;;;5068299;28;20529;-60
2022/01/09 06:00:26;;;;;;;5.23;4.10;;;2.70;1.00;;;;;;5055841;28;20456;-60
2022/01/09 06:02:51;;;;;;;5.90;3.87;;;2.60;1.00;;;;;;5068792;28;20633;-59
2022/01/09 06:05:17;;;;;;;6.90;3.97;;;2.70;1.00;;;;;;5072036;28;20184;-60
2022/01/09 06:07:43;;;;;;;6.77;4.03;;;2.60;1.00;;;;;;5068822;28;20203;-60
2022/01/09 06:10:10;;;;;;;5.47;4.03;;;2.50;1.00;;;;;;5069089;28;20220;-60
2022/01/09 06:12:36;;;;;;;7.20;4.97;;;2.60;1.00;;;;;;5070416;28;20573;-59
2022/01/09 06:15:02;;;;;;;6.60;4.17;;;;;;;;;;5073479;28;20453;-59
2022/01/09 06:17:27;;;;;;;7.80;4.90;;;2.70;1.00;;;;;;5071324;28;20446;-60
2022/01/09 06:19:53;;;;;;;5.63;3.77;;;2.70;1.00;;;;;;5070074;28;20446;-61
2022/01/09 06:22:19;;;;;;;8.63;4.73;;;2.60;1.00;;;;;;5077092;28;20222;-60
2022/01/09 06:24:50;;;;;;;6.20;5.17;;;2.60;1.00;;;;;;5076140;28;20190;-61
2022/01/09 06:27:17;;;;;;;7.10;5.30;;;2.70;1.00;;;;;;5078517;28;20432;-60
2022/01/09 06:29:43;;;;;;;7.10;4.27;;;;;;;;;;5075749;28;20442;-60
2022/01/09 06:32:09;;;;;;;6.70;4.40;;;2.70;1.00;;;;;;5078086;28;20437;-59
2022/01/09 06:34:35;;;;;;;7.03;4.50;;;2.80;1.00;;;;;;5073030;28;20504;-61
2022/01/09 06:37:01;;;;;;;6.40;4.47;;;;;;;;;;5071993;28;20455;-60
2022/01/09 06:39:26;;;;;;;7.63;4.43;;;2.80;1.00;;;;;;5072547;28;20255;-61
2022/01/09 06:41:52;;;;;;;7.07;3.70;;;2.90;1.00;;;;;;5072351;28;20442;-60
2022/01/09 06:44:18;;;;;;;8.80;4.77;;;2.80;1.00;;;;;;5072994;28;20191;-59
2022/01/09 06:46:43;;;;;;;6.80;4.30;;;2.90;1.00;;;;;;5074874;28;20234;-61
2022/01/09 06:49:10;;;;;;;7.33;4.67;;;2.90;1.00;;;;;;5075606;28;20554;-61
2022/01/09 06:51:35;;;;;;;7.50;4.60;;;2.90;1.00;;;;;;5077618;28;20191;-60
2022/01/09 06:54:01;;;;;;;9.40;4.40;;;3.00;1.00;;;;;;5072801;28;20803;-59
2022/01/09 06:56:27;;;;;;;6.33;4.50;;;2.90;1.00;;;;;;5074882;28;21226;-60
2022/01/09 06:58:52;;;;;;;5.73;4.77;;;2.90;1.00;;;;;;5075794;28;20664;-60
2022/01/09 07:01:18;;;;;;;6.50;4.50;;;2.90;1.00;;;;;;5072811;28;20257;-61
2022/01/09 07:03:43;;;;;;;7.47;5.17;;;2.90;1.00;;;;;;5074875;28;20793;-61
2022/01/09 07:06:10;;;;;;;5.97;4.40;;;3.00;1.00;;;;;;5075334;28;20237;-60
2022/01/09 07:08:36;;;;;;;10.23;4.63;;;3.10;1.00;;;;;;5073733;28;20226;-60
2022/01/09 07:11:03;;;;;;;7.93;4.87;;;1.80;1.00;;;;;;5061562;28;20453;-60
2022/01/09 07:13:28;;;;;;;10.23;4.47;;;3.00;1.00;;;;;;5073306;28;21934;-60
2022/01/09 07:15:54;;;;;;;5.50;4.40;;;2.90;1.00;;;;;;5074930;28;20462;-59
2022/01/09 07:18:20;;;;;;;7.33;4.40;;;;;;;;;;5077562;28;20532;-60
2022/01/09 07:20:45;;;;;;;6.40;4.47;;;2.90;1.00;;;;;;5074586;28;20191;-60
2022/01/09 07:23:11;;;;;;;5.77;4.00;;;2.80;1.00;;;;;;5074054;28;20556;-60
2022/01/09 07:25:37;;;;;;;7.43;4.77;;;2.90;1.00;;;;;;5074438;28;20349;-60
2022/01/09 07:28:02;;;;;;;7.23;4.10;;;2.90;1.00;;;;;;5076385;28;20192;-62
2022/01/09 07:30:31;;;;;;;6.00;4.97;;;2.90;1.00;;;;;;5075511;28;20192;-59
2022/01/09 07:32:58;;;;;;;9.63;5.37;;;2.90;1.00;;;;;;5073104;28;20183;-60
2022/01/09 07:35:24;;;;;;;4.07;3.40;;;3.00;1.00;;;;;;5071014;28;20552;-60
2022/01/09 07:37:50;;;;;;;4.43;3.13;;;3.00;1.00;;;;;;5072447;28;20496;-60
2022/01/09 07:40:16;;;;;;;4.23;3.37;;;3.10;1.00;;;;;;5073190;28;20440;-60
2022/01/09 07:42:42;;;;;;;5.57;3.37;;;;;;;;;;5072450;28;20187;-60
2022/01/09 07:45:08;;;;;;;4.27;3.87;;;3.30;1.00;;;;;;5074765;28;21019;-59
2022/01/09 07:47:36;;;;;;;5.40;3.93;;;3.30;1.00;;;;;;5058095;28;20485;-61
2022/01/09 07:50:03;;;;;;;7.30;3.90;;;3.40;1.00;;;;;;5071866;28;20435;-60
2022/01/09 07:52:29;;;;;;;3.77;3.00;;;3.40;1.00;;;;;;5074082;28;20485;-60
2022/01/09 07:54:55;;;;;;;4.80;3.50;;;;;;;;;;5071649;28;20453;-60
2022/01/09 07:57:21;;;;;;;4.33;3.77;;;3.50;1.00;;;;;;5072046;28;20186;-61
2022/01/09 07:59:46;;;;;;;4.73;3.50;;;3.70;1.00;;;;;;5071975;28;20439;-60
2022/01/09 08:02:12;;;;;;;3.97;3.40;;;;;;;;;;5071984;28;20179;-61
2022/01/09 08:04:38;;;;;;;3.43;3.13;;;3.70;1.00;;;;;;5071990;28;20177;-61
2022/01/09 08:07:04;;;;;;;4.40;3.30;;;;;;;;;;5071818;28;20530;-61
2022/01/09 08:09:30;;;;;;;3.03;2.73;;;3.80;1.00;;;;;;5072562;28;20241;-59
2022/01/09 08:11:55;;;;;;;4.80;3.93;;;4.10;1.00;;;;;;5072684;28;20440;-59
2022/01/09 08:14:21;;;;;;;2.83;2.50;;;4.50;1.00;;;;;;5071262;28;20214;-59
2022/01/09 08:16:47;;;;;;;4.03;3.37;;;4.40;1.00;;;;;;5072560;28;20240;-58
2022/01/09 08:19:13;;;;;;;4.63;3.40;;;4.30;1.00;;;;;;5076536;28;20176;-58
2022/01/09 08:21:39;;;;;;;3.70;2.90;;;;;;;;;;5073324;28;20575;-58
2022/01/09 08:24:05;;;;;;;3.13;2.83;;;;;;;;;;5056437;28;20305;-60
2022/01/09 08:26:31;;;;;;;5.33;2.97;;;4.30;1.00;;;;;;5058294;28;20456;-62
2022/01/09 08:28:56;;;;;;;5.07;3.43;;;;;;;;;;5072589;28;20452;-61
2022/01/09 08:31:22;;;;;;;5.80;3.97;;;4.20;1.00;;;;;;5072118;28;20179;-60
2022/01/09 08:33:48;;;;;;;6.83;4.07;;;4.20;1.00;;;;;;5072787;28;20456;-60
2022/01/09 08:36:14;;;;;;;4.37;3.37;;;4.10;1.00;;;;;;5071923;28;20212;-60
2022/01/09 08:38:42;;;;;;;2.90;2.70;;;4.10;1.00;;;;;;5076393;28;20189;-60
2022/01/09 08:41:08;;;;;;;3.30;2.90;;;;;;;;;;5076630;28;20518;-61
2022/01/09 08:43:36;;;;;;;4.70;3.50;;;4.10;1.00;;;;;;5079102;28;20560;-60
2022/01/09 08:46:02;;;;;;;4.37;3.20;;;;;;;;;;5073583;28;20453;-60
2022/01/09 08:48:28;;;;;;;4.00;2.73;;;3.90;1.00;;;;;;5077165;28;20449;-61
2022/01/09 08:50:53;;;;;;;4.27;2.80;;;4.00;1.00;;;;;;5074823;28;20514;-60
2022/01/09 08:53:19;;;;;;;3.27;2.97;;;;;;;;;;5081004;28;20194;-62
2022/01/09 08:55:45;;;;;;;3.00;2.70;;;;;;;;;;5081979;28;20204;-61
2022/01/09 08:58:11;;;;;;;3.90;3.10;;;3.90;1.00;;;;;;5057752;28;21013;-62
2022/01/09 09:00:37;;;;;;;4.83;3.17;;;;;;;;;;5076299;28;20447;-61
2022/01/09 09:03:04;;;;;;;4.13;2.73;;;3.80;1.00;;;;;;5071684;28;20284;-61
2022/01/09 09:05:30;;;;;;;3.57;3.27;;;;;;;;;;5072960;28;20442;-61
2022/01/09 09:07:58;;;;;;;3.50;2.57;;;3.80;1.00;;;;;;5071178;28;20446;-61
2022/01/09 09:10:24;;;;;;;2.80;2.60;;;;;;;;;;5070569;28;20447;-61
2022/01/09 09:12:50;;;;;;;3.30;2.27;;;3.80;1.00;;;;;;5074598;28;20938;-61
2022/01/09 09:15:15;;;;;;;5.60;3.17;;;3.80;1.00;;;;;;5073634;28;20478;-61
2022/01/09 09:17:41;;;;;;;3.90;3.07;;;3.90;1.00;;;;;;5075228;28;20188;-62
2022/01/09 09:20:07;;;;;;;8.00;4.10;;;4.00;1.00;;;;;;5071878;28;20211;-61
2022/01/09 09:22:34;;;;;;;3.70;3.13;;;4.10;1.00;;;;;;5072467;28;20246;-61
2022/01/09 09:25:00;;;;;;;3.37;3.07;;;;;;;;;;5074428;28;20444;-61
2022/01/09 09:27:30;;;;;;;3.50;2.93;;;4.20;1.00;;;;;;5074909;28;20441;-61
2022/01/09 09:30:06;;;;;;;3.43;3.13;;;4.30;1.00;;;;;;5071945;28;20456;-60
2022/01/09 09:32:32;;;;;;;4.83;3.40;;;4.30;1.00;;;;;;5072871;28;20553;-61
2022/01/09 09:34:58;;;;;;;4.40;2.53;;;4.40;1.00;;;;;;5074347;28;20952;-61
2022/01/09 09:37:26;;;;;;;3.63;3.27;;;4.40;1.00;;;;;;5073449;28;20481;-61
2022/01/09 09:39:52;;;;;;;5.33;4.13;;;4.40;1.00;;;;;;5075253;28;20438;-62
2022/01/09 09:42:21;;;;;;;5.03;3.13;;;4.40;1.00;;;;;;5078718;28;20488;-62
2022/01/09 09:44:46;;;;;;;4.00;3.60;;;4.40;1.00;;;;;;5074173;28;20447;-62
2022/01/09 09:47:13;;;;;;;4.57;3.23;;;4.50;1.00;;;;;;5077517;28;20937;-61
2022/01/09 09:49:39;;;;;;;4.10;3.10;;;;;;;;;;5076301;28;20190;-62
2022/01/09 09:52:06;;;;;;;3.43;3.03;;;4.50;1.00;;;;;;5080859;28;20492;-61
2022/01/09 09:54:32;;;;;;;4.30;3.17;;;4.60;1.00;;;;;;5058244;28;20435;-61
2022/01/09 09:56:58;;;;;;;6.50;3.53;;;4.70;1.00;;;;;;5075864;28;20471;-61
2022/01/09 09:59:34;;;;;;;3.97;3.23;;;4.90;1.00;;;;;;5084572;28;20456;-62
2022/01/09 10:01:59;;;;;;;7.77;3.30;;;4.90;1.00;;;;;;5079761;28;20208;-61
2022/01/09 10:04:25;;;;;;;3.77;3.37;;;5.10;1.00;;;;;;5082151;28;20827;-61
2022/01/09 10:06:51;;;;;;;4.50;3.30;;;;;;;;;;5066332;28;20189;-61
2022/01/09 10:09:19;;;;;;;3.60;3.30;;;5.10;1.00;;;;;;5077278;28;20178;-61
2022/01/09 10:11:51;;;;;;;4.93;3.53;;;5.20;1.00;;;;;;5078686;28;20451;-61
2022/01/09 10:14:29;;;;;;;3.90;3.43;;;5.30;1.00;;;;;;5082057;28;20515;-61
2022/01/09 10:17:21;;;;;;;5.07;4.00;;;5.40;1.00;;;;;;5080926;28;20551;-61
2022/01/09 10:20:08;;;;;;;3.40;2.90;;;5.20;1.00;;;;;;5077196;28;20443;-61
2022/01/09 10:22:41;;;;;;;3.77;3.10;;;5.40;1.00;;;;;;5079256;28;20479;-61
2022/01/09 10:25:24;;;;;;;4.10;3.03;;;5.50;1.00;;;;;;5081370;28;20441;-62
2022/01/09 10:27:55;;;;;;;3.70;3.23;;;5.60;1.00;;;;;;5061405;28;20443;-61
2022/01/09 10:30:22;;;;;;;3.50;3.10;;;5.60;1.00;;;;;;5079706;28;20473;-62
2022/01/09 10:32:54;;;;;;;3.93;3.07;;;5.60;1.00;;;;;;5076906;28;20433;-62
2022/01/09 10:35:20;;;;;;;4.03;3.40;;;5.30;1.00;;;;;;5075980;28;20863;-61
2022/01/09 10:37:48;;;;;;;3.37;3.07;;;5.20;1.00;;;;;;5075280;28;20532;-62
2022/01/09 10:40:22;;;;;;;3.43;2.80;;;5.00;1.00;;;;;;5075492;28;20184;-61
2022/01/09 10:43:06;;;;;;;4.90;3.67;;;4.90;1.00;;;;;;5075723;28;20442;-61
2022/01/09 10:45:33;;;;;;;4.33;3.77;;;4.90;1.00;;;;;;5078658;28;20444;-61
2022/01/09 10:48:08;;;;;;;3.57;2.93;;;5.00;1.00;;;;;;5077715;28;20446;-62
2022/01/09 10:50:37;;;;;;;5.10;3.23;;;5.00;1.00;;;;;;5076091;28;20463;-61
2022/01/09 10:53:23;;;;;;;5.43;3.10;;;5.20;1.00;;;;;;5073090;28;20446;-60
2022/01/09 10:56:10;;;;;;;4.40;3.00;;;5.50;1.00;;;;;;5089801;28;20466;-61
2022/01/09 10:58:48;;;;;;;5.00;3.43;;;5.80;1.00;;;;;;5075349;28;20570;-61
2022/01/09 11:01:24;;;;;;;3.43;3.13;;;6.00;1.00;;;;;;5072568;28;20706;-61
2022/01/09 11:03:52;;;;;;;5.13;3.90;;;6.10;1.00;;;;;;5073089;28;20436;-61
2022/01/09 11:06:19;;;;;;;3.47;3.00;;;6.20;1.00;;;;;;5072323;28;20446;-61
2022/01/09 11:08:45;;;;;;;3.83;3.20;;;6.30;1.00;;;;;;5072607;28;20791;-61
2022/01/09 11:11:27;;;;;;;3.40;3.10;;;6.40;1.00;;;;;;5057740;28;20477;-61
2022/01/09 11:13:54;;;;;;;4.87;3.30;;;6.50;1.00;;;;;;5068653;28;20472;-63
2022/01/09 11:16:41;;;;;;;3.80;3.40;;;6.50;1.00;;;;;;5073833;28;20472;-61
2022/01/09 11:19:10;;;;;;;5.30;3.03;;;6.50;1.00;;;;;;5078252;28;20744;-61
2022/01/09 11:21:38;;;;;;;3.33;3.00;;;6.50;1.00;;;;;;5076134;28;20452;-60
2022/01/09 11:24:22;;;;;;;3.93;3.20;;;6.60;1.00;;;;;;5072511;28;20562;-60
2022/01/09 11:26:59;;;;;;;3.73;3.23;;;6.60;1.00;;;;;;5074555;28;20818;-61
2022/01/09 11:29:50;;;;;;;3.67;3.33;;;6.60;1.00;;;;;;5072864;28;20456;-61
2022/01/09 11:32:34;;;;;;;3.93;3.03;;;6.50;1.00;;;;;;5077741;28;20476;-61
2022/01/09 11:34:59;;;;;;;4.00;3.50;;;6.40;1.00;;;;;;5088312;28;20464;-61
2022/01/09 11:37:46;;;;;;;4.67;4.10;;;6.50;1.00;;;;;;5074935;28;20476;-62
2022/01/09 11:40:22;;;;;;;4.70;3.90;;;6.40;1.00;;;;;;5074156;28;20628;-62
2022/01/09 11:43:07;;;;;;;5.07;3.50;;;6.40;1.00;;;;;;5072875;28;20763;-62
2022/01/09 11:45:48;;;;;;;5.87;4.00;;;6.30;1.00;;;;;;5072463;28;20527;-63
2022/01/09 11:48:16;;;;;;;3.93;3.40;;;6.30;1.00;;;;;;5067248;28;20488;-63
2022/01/09 11:51:04;;;;;;;4.10;3.53;;;6.50;1.00;;;;;;5067907;28;20444;-64
2022/01/09 11:54:12;;;;;;;3.87;3.47;;;6.30;1.00;;;;;;5073062;28;20523;-63
2022/01/09 11:56:47;;;;;;;6.03;4.20;;;6.10;1.00;;;;;;5070515;28;20526;-60
2022/01/09 11:59:48;;;;;;;5.90;4.87;;;6.00;1.00;;;;;;5072972;28;20542;-62
2022/01/09 12:02:17;;;;;;;5.60;3.90;;;5.90;1.00;;;;;;5052713;28;20451;-61
2022/01/09 12:04:42;;;;;;;4.07;3.60;;;5.90;1.00;;;;;;5054464;28;20849;-62
2022/01/09 12:07:36;;;;;;;5.83;4.10;;;5.90;1.00;;;;;;5069615;28;20471;-62
2022/01/09 12:10:23;;;;;;;6.50;3.70;;;5.90;1.00;;;;;;5077757;28;20185;-62
2022/01/09 12:12:49;;;;;;;5.77;4.07;;;5.90;1.00;;;;;;5071500;28;20460;-64
2022/01/09 12:15:49;;;;;;;4.80;4.27;;;5.90;1.00;;;;;;5077369;28;20469;-63
2022/01/09 12:18:42;;;;;;;4.77;3.87;;;6.00;1.00;;;;;;5061370;28;20957;-62
2022/01/09 12:21:09;;;;;;;7.77;5.47;;;6.00;1.00;;;;;;5071669;28;20440;-63
2022/01/09 12:23:35;;;;;;;6.80;4.23;;;6.00;1.00;;;;;;5072215;28;20872;-61
2022/01/09 12:26:00;;;;;;;4.63;4.23;;;6.00;1.00;;;;;;5070468;28;20438;-62
2022/01/09 12:28:37;;;;;;;6.77;4.80;;;6.10;1.00;;;;;;5057670;28;20189;-61
2022/01/09 12:31:03;;;;;;;5.03;4.20;;;;;;;;;;5074613;28;20170;-62
2022/01/09 12:33:31;;;;;;;4.70;4.17;;;;;;;;;;5071843;28;20470;-62
2022/01/09 12:36:11;;;;;;;4.60;3.87;;;6.20;1.00;;;;;;5069332;28;20571;-63
2022/01/09 12:38:43;;;;;;;4.43;3.90;;;6.20;1.00;;;;;;5069403;28;20472;-62
2022/01/09 12:41:13;;;;;;;5.83;4.20;;;6.20;1.00;;;;;;5069843;28;20495;-61
2022/01/09 12:43:41;;;;;;;5.83;4.53;;;;;;;;;;5072825;28;20835;-63
2022/01/09 12:46:20;;;;;;;5.37;4.47;;;6.20;1.00;;;;;;5070042;28;20933;-62
2022/01/09 12:48:53;;;;;;;5.13;4.20;;;6.20;1.00;;;;;;5070646;28;20490;-62
2022/01/09 12:51:19;;;;;;;4.30;3.90;;;6.20;1.00;;;;;;5069936;28;21002;-61
2022/01/09 12:53:48;;;;;;;8.87;6.23;;;6.20;1.00;;;;;;5069843;28;20945;-64
2022/01/09 12:56:16;;;;;;;4.97;4.47;;;6.20;1.00;;;;;;5070010;28;20468;-62
2022/01/09 12:59:00;;;;;;;5.33;4.83;;;6.20;1.00;;;;;;5074102;28;20518;-65
2022/01/09 13:01:32;;;;;;;5.50;5.00;;;6.20;1.00;;;;;;5076913;28;20464;-65
2022/01/09 13:04:00;;;;;;;7.20;5.43;;;6.30;1.00;;;;;;5066259;28;20454;-64
2022/01/09 13:06:27;;;;;;;6.50;4.90;;;6.30;1.00;;;;;;5070496;28;20459;-64
2022/01/09 13:08:56;;;;;;;6.30;5.10;;;6.20;1.00;;;;;;5069892;28;20545;-63
2022/01/09 13:11:24;;;;;;;6.93;5.13;;;6.20;1.00;;;;;;5070379;28;20441;-62
2022/01/09 13:13:52;;;;;;;5.93;5.03;;;6.30;1.00;;;;;;5076137;28;20447;-63
2022/01/09 13:16:22;;;;;;;6.63;4.60;;;6.20;1.00;;;;;;5069155;28;20470;-61
2022/01/09 13:18:50;;;;;;;8.90;5.27;;;6.20;1.00;;;;;;5074570;28;20488;-61
2022/01/09 13:21:15;;;;;;;6.73;5.00;;;6.10;1.00;;;;;;5067749;28;20913;-61
2022/01/09 13:23:52;;;;;;;5.40;4.60;;;6.10;1.00;;;;;;5069513;28;20491;-61
2022/01/09 13:26:18;;;;;;;7.07;5.07;;;;;;;;;;5066181;28;20191;-61
2022/01/09 13:28:45;;;;;;;6.47;5.27;;;6.10;1.00;;;;;;5069690;28;20556;-61
2022/01/09 13:31:11;;;;;;;7.53;5.40;;;6.10;1.00;;;;;;5068789;28;20445;-61
2022/01/09 13:33:57;;;;;;;6.00;5.40;;;6.00;1.00;;;;;;5069676;28;20579;-62